Time;durP1;ratioP1;P1;durP2;ratioP2;P2;SDS_P1;SDS_P2;PMS_P1;PMS_P2;Temp;Humidity;BMP_temperature;BMP_pressure;BME280_temperature;BME280_humidity;BME280_pressure;Samples;Min_cycle;Max_cycle;Signal;HPM_P1;HPM_P2
2024/01/10 00:01:30;;;;;;;;;;;19.40;43.40;;;;;;5080932;28;19920;-57
2024/01/10 00:03:58;;;;;;;;;;;19.40;44.00;;;;;;5089327;28;19924;-55
2024/01/10 00:06:25;;;;;;;;;;;19.40;43.40;;;;;;5085055;28;19942;-57
2024/01/10 00:08:51;;;;;;;;;;;19.40;43.50;;;;;;5095525;28;19933;-56
2024/01/10 00:11:18;;;;;;;;;;;19.40;43.50;;;;;;5092137;28;19927;-59
2024/01/10 00:13:45;;;;;;;;;;;19.40;43.50;;;;;;5076802;28;19920;-56
2024/01/10 00:16:13;;;;;;;;;;;19.40;43.50;;;;;;5092160;28;19924;-57
2024/01/10 00:18:40;;;;;;;;;;;19.40;43.50;;;;;;5076937;28;19920;-56
2024/01/10 00:21:08;;;;;;;;;;;19.40;43.50;;;;;;5080122;28;20010;-58
2024/01/10 00:23:34;;;;;;;;;;;19.40;43.50;;;;;;5079925;28;20014;-56
2024/01/10 00:26:01;;;;;;;;;;;19.40;43.50;;;;;;5084536;28;19965;-54
2024/01/10 00:28:28;;;;;;;;;;;19.40;43.60;;;;;;5080681;28;20018;-57
2024/01/10 00:30:55;;;;;;;;;;;19.40;43.60;;;;;;5083763;28;19920;-55
2024/01/10 00:33:21;;;;;;;;;;;19.40;43.60;;;;;;5090648;28;20003;-57
2024/01/10 00:35:48;;;;;;;;;;;19.40;43.60;;;;;;5084285;28;19920;-54
2024/01/10 00:38:16;;;;;;;;;;;19.40;43.60;;;;;;5080881;28;19973;-58
2024/01/10 00:40:43;;;;;;;;;;;19.40;43.70;;;;;;5085219;28;19927;-55
2024/01/10 00:43:09;;;;;;;;;;;19.30;43.60;;;;;;5081014;28;19969;-58
2024/01/10 00:45:36;;;;;;;;;;;19.40;43.60;;;;;;5077751;28;19925;-56
2024/01/10 00:48:03;;;;;;;;;;;19.40;43.70;;;;;;5091056;28;19932;-56
2024/01/10 00:50:30;;;;;;;;;;;19.30;43.60;;;;;;5078769;28;19927;-54
2024/01/10 00:52:57;;;;;;;;;;;19.40;43.70;;;;;;5079307;28;19955;-54
2024/01/10 00:55:25;;;;;;;;;;;19.30;43.60;;;;;;5081522;28;19928;-55
2024/01/10 00:57:51;;;;;;;;;;;19.30;43.70;;;;;;5083401;28;19928;-54
2024/01/10 01:00:18;;;;;;;;;;;19.30;43.70;;;;;;5090140;28;19925;-58
2024/01/10 01:02:45;;;;;;;;;;;19.40;43.80;;;;;;5081763;28;19921;-54
2024/01/10 01:05:12;;;;;;;;;;;19.40;43.80;;;;;;5090853;28;19920;-57
2024/01/10 01:07:38;;;;;;;;;;;19.40;43.80;;;;;;5078072;28;19924;-57
2024/01/10 01:10:08;;;;;;;;;;;19.40;43.80;;;;;;5077334;28;20326;-57
2024/01/10 01:12:36;;;;;;;;;;;19.30;43.70;;;;;;5079295;28;19920;-56
2024/01/10 01:15:03;;;;;;;;;;;19.30;43.60;;;;;;5083399;28;19936;-57
2024/01/10 01:17:30;;;;;;;;;;;19.40;43.70;;;;;;5086540;28;20358;-57
2024/01/10 01:19:57;;;;;;;;;;;19.30;43.60;;;;;;5094800;28;19943;-57
2024/01/10 01:22:23;;;;;;;;;;;19.30;43.60;;;;;;5083399;28;19932;-57
2024/01/10 01:24:50;;;;;;;;;;;19.30;43.50;;;;;;5093277;28;19920;-56
2024/01/10 01:27:17;;;;;;;;;;;19.30;43.50;;;;;;5093476;28;19928;-58
2024/01/10 01:29:45;;;;;;;;;;;19.30;43.50;;;;;;5085317;28;20033;-56
2024/01/10 01:32:12;;;;;;;;;;;19.30;43.50;;;;;;5095362;28;19927;-57
2024/01/10 01:34:39;;;;;;;;;;;19.30;43.50;;;;;;5080956;28;19931;-58
2024/01/10 01:37:05;;;;;;;;;;;19.30;43.50;;;;;;5085610;28;19920;-57
2024/01/10 01:39:32;;;;;;;;;;;19.30;43.50;;;;;;5078449;28;19926;-57
2024/01/10 01:41:59;;;;;;;;;;;19.30;43.50;;;;;;5082276;28;19985;-57
2024/01/10 01:44:26;;;;;;;;;;;19.30;44.00;;;;;;5084606;28;19949;-58
2024/01/10 01:46:54;;;;;;;;;;;19.30;43.50;;;;;;5080258;28;19927;-57
2024/01/10 01:49:21;;;;;;;;;;;19.30;43.40;;;;;;5093629;28;19927;-57
2024/01/10 01:51:48;;;;;;;;;;;19.30;43.40;;;;;;5078555;28;19920;-58
2024/01/10 01:54:14;;;;;;;;;;;19.30;43.40;;;;;;5092794;28;19943;-58
2024/01/10 01:56:41;;;;;;;;;;;19.30;43.40;;;;;;5094440;28;19920;-58
2024/01/10 01:59:08;;;;;;;;;;;19.30;43.40;;;;;;5093586;28;19931;-57
2024/01/10 02:01:35;;;;;;;;;;;19.30;43.40;;;;;;5093764;28;19927;-57
2024/01/10 02:04:03;;;;;;;;;;;19.30;43.40;;;;;;5092011;28;19973;-58
2024/01/10 02:06:30;;;;;;;;;;;19.30;43.40;;;;;;5083136;28;19963;-57
2024/01/10 02:08:57;;;;;;;;;;;19.30;43.40;;;;;;5084753;28;19920;-58
2024/01/10 02:11:24;;;;;;;;;;;19.30;43.40;;;;;;5085332;28;19970;-58
2024/01/10 02:13:51;;;;;;;;;;;19.30;43.40;;;;;;5090275;28;19924;-58
2024/01/10 02:16:18;;;;;;;;;;;19.30;43.50;;;;;;5082977;28;20018;-58
2024/01/10 02:18:45;;;;;;;;;;;19.30;43.50;;;;;;5083493;28;19936;-58
2024/01/10 02:21:13;;;;;;;;;;;19.20;43.40;;;;;;5092507;28;19927;-57
2024/01/10 02:23:40;;;;;;;;;;;19.30;43.50;;;;;;5091944;28;19920;-57
2024/01/10 02:26:08;;;;;;;;;;;19.30;43.50;;;;;;5080505;28;19965;-56
2024/01/10 02:28:34;;;;;;;;;;;19.30;43.50;;;;;;5093606;28;19920;-56
2024/01/10 02:31:01;;;;;;;;;;;19.30;43.50;;;;;;5079725;28;20038;-58
2024/01/10 02:33:28;;;;;;;;;;;19.30;43.50;;;;;;5093145;28;20276;-58
2024/01/10 02:35:55;;;;;;;;;;;19.30;43.60;;;;;;5092938;28;19924;-58
2024/01/10 02:38:23;;;;;;;;;;;19.30;43.60;;;;;;5086229;28;19920;-57
2024/01/10 02:40:50;;;;;;;;;;;19.30;43.60;;;;;;5091639;28;19963;-57
2024/01/10 02:43:18;;;;;;;;;;;19.30;43.60;;;;;;5083448;28;19920;-57
2024/01/10 02:45:44;;;;;;;;;;;19.30;43.60;;;;;;5092938;28;19927;-57
2024/01/10 02:48:11;;;;;;;;;;;19.30;43.70;;;;;;5077278;28;19970;-58
2024/01/10 02:50:39;;;;;;;;;;;19.30;43.70;;;;;;5092444;28;19924;-57
2024/01/10 02:53:05;;;;;;;;;;;19.30;43.70;;;;;;5080824;28;19932;-57
2024/01/10 02:55:32;;;;;;;;;;;19.20;43.70;;;;;;5090029;28;19920;-57
2024/01/10 02:57:59;;;;;;;;;;;19.30;43.80;;;;;;5083319;28;19960;-57
2024/01/10 03:00:27;;;;;;;;;;;19.30;43.70;;;;;;5089213;28;20276;-57
2024/01/10 03:02:54;;;;;;;;;;;19.30;43.80;;;;;;5076382;28;19924;-58
2024/01/10 03:05:21;;;;;;;;;;;19.30;43.80;;;;;;5090025;28;19959;-57
2024/01/10 03:07:47;;;;;;;;;;;19.30;43.80;;;;;;5084412;28;20011;-58
2024/01/10 03:10:14;;;;;;;;;;;19.30;43.80;;;;;;5094587;28;19920;-57
2024/01/10 03:12:41;;;;;;;;;;;19.30;43.80;;;;;;5075446;28;19932;-57
2024/01/10 03:15:08;;;;;;;;;;;19.30;43.80;;;;;;5082875;28;19928;-57
2024/01/10 03:17:36;;;;;;;;;;;19.30;43.70;;;;;;5084884;28;20224;-55
2024/01/10 03:20:03;;;;;;;;;;;19.30;43.70;;;;;;5086720;28;19927;-55
2024/01/10 03:22:30;;;;;;;;;;;19.30;43.60;;;;;;5084203;28;19924;-56
2024/01/10 03:24:56;;;;;;;;;;;19.30;43.60;;;;;;5092737;28;19920;-55
2024/01/10 03:27:23;;;;;;;;;;;19.30;43.60;;;;;;5075173;28;19924;-56
2024/01/10 03:29:50;;;;;;;;;;;19.30;43.50;;;;;;5081521;28;19946;-56
2024/01/10 03:32:16;;;;;;;;;;;19.20;43.50;;;;;;5086837;28;19950;-54
2024/01/10 03:34:45;;;;;;;;;;;19.20;43.50;;;;;;5078928;28;19920;-56
2024/01/10 03:37:11;;;;;;;;;;;19.20;43.40;;;;;;5082549;28;19920;-54
2024/01/10 03:39:38;;;;;;;;;;;19.20;43.40;;;;;;5091537;28;19932;-56
2024/01/10 03:42:05;;;;;;;;;;;19.20;43.40;;;;;;5080100;28;19926;-55
2024/01/10 03:44:31;;;;;;;;;;;19.20;43.40;;;;;;5077771;28;19920;-55
2024/01/10 03:46:58;;;;;;;;;;;19.20;43.40;;;;;;5082258;28;19925;-55
2024/01/10 03:49:25;;;;;;;;;;;19.20;43.40;;;;;;5079820;28;19920;-51
2024/01/10 03:51:53;;;;;;;;;;;19.20;43.40;;;;;;5090189;28;19927;-55
2024/01/10 03:54:20;;;;;;;;;;;19.20;43.40;;;;;;5082244;28;19924;-56
2024/01/10 03:56:46;;;;;;;;;;;19.20;43.40;;;;;;5080062;28;20019;-51
2024/01/10 03:59:13;;;;;;;;;;;19.20;43.30;;;;;;5081537;28;19928;-53
2024/01/10 04:01:40;;;;;;;;;;;19.20;43.40;;;;;;5079182;28;19928;-49
2024/01/10 04:04:07;;;;;;;;;;;19.20;43.30;;;;;;5075585;28;19939;-55
2024/01/10 04:06:34;;;;;;;;;;;19.20;43.40;;;;;;5077908;28;19920;-55
2024/01/10 04:09:02;;;;;;;;;;;19.20;43.40;;;;;;5078981;28;19927;-51
2024/01/10 04:11:29;;;;;;;;;;;19.20;43.40;;;;;;5079381;28;19924;-55
2024/01/10 04:13:56;;;;;;;;;;;19.20;43.40;;;;;;5082081;28;19920;-53
2024/01/10 04:16:23;;;;;;;;;;;19.20;43.40;;;;;;5091832;28;20022;-55
2024/01/10 04:18:49;;;;;;;;;;;19.20;43.40;;;;;;5080363;28;19920;-55
2024/01/10 04:21:16;;;;;;;;;;;19.20;43.50;;;;;;5074635;28;19920;-55
2024/01/10 04:23:43;;;;;;;;;;;19.20;43.50;;;;;;5091343;28;19965;-52
2024/01/10 04:26:11;;;;;;;;;;;19.20;43.50;;;;;;5085357;28;19968;-55
2024/01/10 04:28:40;;;;;;;;;;;19.20;43.50;;;;;;5086833;28;20254;-54
2024/01/10 04:31:06;;;;;;;;;;;19.20;43.50;;;;;;5075761;28;19920;-53
2024/01/10 04:33:33;;;;;;;;;;;19.20;43.60;;;;;;5088008;28;19928;-56
2024/01/10 04:36:00;;;;;;;;;;;19.20;43.60;;;;;;5082346;28;19920;-54
2024/01/10 04:38:26;;;;;;;;;;;19.20;43.60;;;;;;5078420;28;19923;-56
2024/01/10 04:40:53;;;;;;;;;;;19.20;43.60;;;;;;5079091;28;19920;-55
2024/01/10 04:43:21;;;;;;;;;;;19.20;43.60;;;;;;5077489;28;19955;-54
2024/01/10 04:45:48;;;;;;;;;;;19.20;43.70;;;;;;5090544;28;20105;-54
2024/01/10 04:48:15;;;;;;;;;;;19.20;43.70;;;;;;5091983;28;19931;-52
2024/01/10 04:50:42;;;;;;;;;;;19.20;43.70;;;;;;5086627;28;19924;-56
2024/01/10 04:53:08;;;;;;;;;;;19.20;43.70;;;;;;5077768;28;19920;-53
2024/01/10 04:55:35;;;;;;;;;;;19.20;43.70;;;;;;5083026;28;19920;-55
2024/01/10 04:58:02;;;;;;;;;;;19.20;43.70;;;;;;5095605;28;19926;-54
2024/01/10 05:00:31;;;;;;;;;;;19.20;43.80;;;;;;5095255;28;20022;-54
2024/01/10 05:02:58;;;;;;;;;;;19.20;43.70;;;;;;5095664;28;20006;-53
2024/01/10 05:05:25;;;;;;;;;;;19.20;43.80;;;;;;5094074;28;19951;-53
2024/01/10 05:07:51;;;;;;;;;;;19.20;43.80;;;;;;5083250;28;20241;-55
2024/01/10 05:10:18;;;;;;;;;;;19.20;43.80;;;;;;5086459;28;19927;-55
2024/01/10 05:12:45;;;;;;;;;;;19.20;44.30;;;;;;5080390;28;19920;-55
2024/01/10 05:15:12;;;;;;;;;;;19.20;43.70;;;;;;5096529;28;19928;-54
2024/01/10 05:17:40;;;;;;;;;;;19.20;43.70;;;;;;5085754;28;19931;-56
2024/01/10 05:20:07;;;;;;;;;;;19.20;43.70;;;;;;5081793;28;19920;-57
2024/01/10 05:22:34;;;;;;;;;;;19.20;43.70;;;;;;5093507;28;19924;-56
2024/01/10 05:25:01;;;;;;;;;;;19.20;43.60;;;;;;5083086;28;19967;-56
2024/01/10 05:27:27;;;;;;;;;;;19.20;43.60;;;;;;5087588;28;19930;-56
2024/01/10 05:29:54;;;;;;;;;;;19.20;43.60;;;;;;5083623;28;19920;-56
2024/01/10 05:32:21;;;;;;;;;;;19.20;43.60;;;;;;5083900;28;19991;-55
2024/01/10 05:34:49;;;;;;;;;;;19.10;43.50;;;;;;5095190;28;19926;-55
2024/01/10 05:37:16;;;;;;;;;;;19.20;43.50;;;;;;5091275;28;19920;-55
2024/01/10 05:39:42;;;;;;;;;;;19.20;43.50;;;;;;5080709;28;19927;-55
2024/01/10 05:42:09;;;;;;;;;;;19.20;44.10;;;;;;5081698;28;19936;-54
2024/01/10 05:44:36;;;;;;;;;;;19.20;43.50;;;;;;5087977;28;19927;-50
2024/01/10 05:47:03;;;;;;;;;;;19.20;43.50;;;;;;5087155;28;19973;-50
2024/01/10 05:49:29;;;;;;;;;;;19.20;43.50;;;;;;5079929;28;19920;-53
2024/01/10 05:51:58;;;;;;;;;;;19.20;43.40;;;;;;5100619;28;19927;-49
2024/01/10 05:54:24;;;;;;;;;;;19.20;43.40;;;;;;5081818;28;19920;-51
2024/01/10 05:56:51;;;;;;;;;;;19.20;43.40;;;;;;5074353;28;19939;-54
2024/01/10 05:59:18;;;;;;;;;;;19.20;43.40;;;;;;5076577;28;19973;-54
2024/01/10 06:01:44;;;;;;;;;;;19.20;43.40;;;;;;5092947;28;19920;-53
2024/01/10 06:04:11;;;;;;;;;;;19.20;43.40;;;;;;5086854;28;19932;-52
2024/01/10 06:06:38;;;;;;;;;;;19.20;43.40;;;;;;5087511;28;19924;-52
2024/01/10 06:09:06;;;;;;;;;;;19.10;43.30;;;;;;5085109;28;19920;-53
2024/01/10 06:11:33;;;;;;;;;;;19.10;43.30;;;;;;5076191;28;19927;-55
2024/01/10 06:13:59;;;;;;;;;;;19.20;43.50;;;;;;5086042;28;19920;-55
2024/01/10 06:16:26;;;;;;;;;;;19.20;43.50;;;;;;5096507;28;19920;-51
2024/01/10 06:18:53;;;;;;;;;;;19.20;43.50;;;;;;5095294;28;19920;-53
2024/01/10 06:21:20;;;;;;;;;;;19.20;43.50;;;;;;5097380;28;19981;-54
2024/01/10 06:23:46;;;;;;;;;;;19.10;43.50;;;;;;5089642;28;19927;-52
2024/01/10 06:26:15;;;;;;;;;;;19.20;43.60;;;;;;5086211;28;19920;-55
2024/01/10 06:28:41;;;;;;;;;;;19.20;43.60;;;;;;5080515;28;19931;-53
2024/01/10 06:31:08;;;;;;;;;;;19.10;44.10;;;;;;5093013;28;19920;-56
2024/01/10 06:33:35;;;;;;;;;;;19.20;43.60;;;;;;5093135;28;19949;-54
2024/01/10 06:36:02;;;;;;;;;;;19.10;43.60;;;;;;5076984;28;19977;-55
2024/01/10 06:38:28;;;;;;;;;;;19.20;43.70;;;;;;5079204;28;19920;-55
2024/01/10 06:40:55;;;;;;;;;;;19.20;43.70;;;;;;5095012;28;19923;-55
2024/01/10 06:43:23;;;;;;;;;;;19.20;43.70;;;;;;5112711;28;20311;-55
2024/01/10 06:45:50;;;;;;;;;;;19.20;43.70;;;;;;5091166;28;19924;-52
2024/01/10 06:48:18;;;;;;;;;;;19.20;43.70;;;;;;5077273;28;19969;-55
2024/01/10 06:50:45;;;;;;;;;;;19.20;43.70;;;;;;5095100;28;19928;-55
2024/01/10 06:53:12;;;;;;;;;;;19.20;43.80;;;;;;5094765;28;19924;-55
2024/01/10 06:55:39;;;;;;;;;;;19.10;43.70;;;;;;5079501;28;19924;-55
2024/01/10 06:58:06;;;;;;;;;;;19.10;43.70;;;;;;5077657;28;20270;-55
2024/01/10 07:00:34;;;;;;;;;;;19.20;43.80;;;;;;5077180;28;19920;-55
2024/01/10 07:03:02;;;;;;;;;;;19.20;43.80;;;;;;5093205;28;19927;-55
2024/01/10 07:05:31;;;;;;;;;;;19.20;43.80;;;;;;5090766;28;20002;-55
2024/01/10 07:07:58;;;;;;;;;;;19.20;43.80;;;;;;5075536;28;19927;-54
2024/01/10 07:10:27;;;;;;;;;;;19.20;43.80;;;;;;5076265;28;19942;-55
2024/01/10 07:12:54;;;;;;;;;;;19.10;43.70;;;;;;5075388;28;19919;-55
2024/01/10 07:15:20;;;;;;;;;;;19.10;43.70;;;;;;5092167;28;19920;-56
2024/01/10 07:17:49;;;;;;;;;;;19.10;43.70;;;;;;5084846;28;19987;-56
2024/01/10 07:20:15;;;;;;;;;;;19.20;43.80;;;;;;5091643;28;19920;-55
2024/01/10 07:22:43;;;;;;;;;;;19.10;43.70;;;;;;5090948;28;20269;-56
2024/01/10 07:25:13;;;;;;;;;;;19.20;43.80;;;;;;5091487;28;19971;-54
2024/01/10 07:27:40;;;;;;;;;;;19.10;43.70;;;;;;5090918;28;19931;-54
2024/01/10 07:30:13;;;;;;;;;;;19.20;43.70;;;;;;5080180;28;19920;-57
2024/01/10 07:32:40;;;;;;;;;;;19.10;43.70;;;;;;5099053;28;19955;-55
2024/01/10 07:35:09;;;;;;;;;;;19.20;43.70;;;;;;5089070;28;19920;-50
2024/01/10 07:37:36;;;;;;;;;;;19.10;38.60;;;;;;5086430;28;19966;-53
2024/01/10 07:40:04;;;;;;;;;;;18.80;26.20;;;;;;5078283;28;19921;-53
2024/01/10 07:42:31;;;;;;;;;;;18.30;25.70;;;;;;5079458;28;19969;-53
2024/01/10 07:44:58;;;;;;;;;;;17.90;28.90;;;;;;5095387;28;19924;-53
2024/01/10 07:47:25;;;;;;;;;;;17.60;31.10;;;;;;5072990;28;20028;-55
2024/01/10 07:49:52;;;;;;;;;;;17.50;33.00;;;;;;5076075;28;19920;-55
2024/01/10 07:52:20;;;;;;;;;;;17.40;34.60;;;;;;5079386;28;19927;-54
2024/01/10 07:54:47;;;;;;;;;;;17.40;35.80;;;;;;5088554;28;20258;-56
2024/01/10 07:57:14;;;;;;;;;;;17.50;36.70;;;;;;5075161;28;19920;-56
2024/01/10 07:59:41;;;;;;;;;;;17.50;37.40;;;;;;5086826;28;19927;-53
2024/01/10 08:02:10;;;;;;;;;;;17.60;38.20;;;;;;5077240;28;19976;-56
2024/01/10 08:04:37;;;;;;;;;;;17.70;38.80;;;;;;5066950;28;19920;-53
2024/01/10 08:07:03;;;;;;;;;;;17.80;39.30;;;;;;5061745;28;19931;-52
2024/01/10 08:09:32;;;;;;;;;;;17.90;39.50;;;;;;5065434;28;19928;-52
2024/01/10 08:11:58;;;;;;;;;;;17.90;39.60;;;;;;5081288;28;19927;-55
2024/01/10 08:14:25;;;;;;;;;;;18.00;39.80;;;;;;5082507;28;19969;-53
2024/01/10 08:16:53;;;;;;;;;;;18.10;40.00;;;;;;5082732;28;19920;-54
2024/01/10 08:19:19;;;;;;;;;;;18.20;40.20;;;;;;5084173;28;19942;-50
2024/01/10 08:21:46;;;;;;;;;;;18.20;40.30;;;;;;5080307;28;19920;-52
2024/01/10 08:24:13;;;;;;;;;;;18.30;40.60;;;;;;5088596;28;19932;-51
2024/01/10 08:26:41;;;;;;;;;;;18.30;40.60;;;;;;5086195;28;19946;-53
2024/01/10 08:29:08;;;;;;;;;;;18.30;40.70;;;;;;5088649;28;19920;-54
2024/01/10 08:31:35;;;;;;;;;;;18.40;40.80;;;;;;5078146;28;19933;-53
2024/01/10 08:34:02;;;;;;;;;;;18.40;40.90;;;;;;5074364;28;19974;-57
2024/01/10 08:36:29;;;;;;;;;;;18.50;41.00;;;;;;5071032;28;19924;-55
2024/01/10 08:38:56;;;;;;;;;;;18.50;41.10;;;;;;5084165;28;20020;-53
2024/01/10 08:41:23;;;;;;;;;;;18.50;41.20;;;;;;5070638;28;19993;-57
2024/01/10 08:43:51;;;;;;;;;;;18.50;41.20;;;;;;5072214;28;20278;-57
2024/01/10 08:46:17;;;;;;;;;;;18.60;41.30;;;;;;5070590;28;20373;-53
2024/01/10 08:48:44;;;;;;;;;;;18.60;41.40;;;;;;5088765;28;19947;-53
2024/01/10 08:51:12;;;;;;;;;;;18.60;41.40;;;;;;5077373;28;19924;-52
2024/01/10 08:53:38;;;;;;;;;;;18.70;41.60;;;;;;5084838;28;20333;-57
2024/01/10 08:56:05;;;;;;;;;;;18.70;41.60;;;;;;5077832;28;19928;-54
2024/01/10 08:58:32;;;;;;;;;;;18.70;41.70;;;;;;5071354;28;19920;-55
2024/01/10 09:01:00;;;;;;;;;;;18.70;41.70;;;;;;5077116;28;19931;-57
2024/01/10 09:03:27;;;;;;;;;;;18.70;41.80;;;;;;5080124;28;19931;-57
2024/01/10 09:05:54;;;;;;;;;;;18.80;41.80;;;;;;5077444;28;19928;-55
2024/01/10 09:08:21;;;;;;;;;;;18.80;41.80;;;;;;5080776;28;19927;-56
2024/01/10 09:10:49;;;;;;;;;;;18.80;41.90;;;;;;5076843;28;19924;-57
2024/01/10 09:13:15;;;;;;;;;;;18.80;41.90;;;;;;5075620;28;19977;-57
2024/01/10 09:15:42;;;;;;;;;;;18.80;41.90;;;;;;5069770;28;19924;-56
2024/01/10 09:18:11;;;;;;;;;;;18.80;41.90;;;;;;5097102;28;19932;-52
2024/01/10 09:20:37;;;;;;;;;;;18.90;42.00;;;;;;5066067;28;19985;-56
2024/01/10 09:23:04;;;;;;;;;;;18.90;42.00;;;;;;5082606;28;19924;-56
2024/01/10 09:25:31;;;;;;;;;;;18.90;42.10;;;;;;5068581;28;20478;-52
2024/01/10 09:27:58;;;;;;;;;;;18.90;42.10;;;;;;5074480;28;19989;-56
2024/01/10 09:30:25;;;;;;;;;;;18.90;42.10;;;;;;5086205;28;19920;-55
2024/01/10 09:32:52;;;;;;;;;;;18.90;42.10;;;;;;5076747;28;19920;-52
2024/01/10 09:35:20;;;;;;;;;;;18.90;42.20;;;;;;5071016;28;19982;-55
2024/01/10 09:37:47;;;;;;;;;;;18.90;42.20;;;;;;5074895;28;20284;-52
2024/01/10 09:40:15;;;;;;;;;;;18.90;42.20;;;;;;5089865;28;19955;-55
2024/01/10 09:42:41;;;;;;;;;;;18.90;42.20;;;;;;5074795;28;19919;-55
2024/01/10 09:45:09;;;;;;;;;;;18.90;42.20;;;;;;5074709;28;19927;-54
2024/01/10 09:47:35;;;;;;;;;;;19.00;42.30;;;;;;5071194;28;20009;-57
2024/01/10 09:50:03;;;;;;;;;;;18.90;42.20;;;;;;5085043;28;19919;-55
2024/01/10 09:52:33;;;;;;;;;;;18.90;42.20;;;;;;5090174;28;20015;-54
2024/01/10 09:55:00;;;;;;;;;;;19.00;42.40;;;;;;5072081;28;19920;-53
2024/01/10 09:57:27;;;;;;;;;;;19.00;42.40;;;;;;5096967;28;21399;-54
2024/01/10 09:59:54;;;;;;;;;;;18.90;42.30;;;;;;5085190;28;19924;-54
2024/01/10 10:02:22;;;;;;;;;;;18.90;42.30;;;;;;5097990;28;19920;-54
2024/01/10 10:04:51;;;;;;;;;;;19.00;42.40;;;;;;5071604;28;19927;-52
2024/01/10 10:07:18;;;;;;;;;;;19.00;42.50;;;;;;5073304;28;19932;-54
2024/01/10 10:09:46;;;;;;;;;;;19.00;42.50;;;;;;5074307;28;19924;-55
2024/01/10 10:12:12;;;;;;;;;;;19.00;42.50;;;;;;5078137;28;19927;-56
2024/01/10 10:14:39;;;;;;;;;;;19.00;42.50;;;;;;5071375;28;19977;-52
2024/01/10 10:17:16;;;;;;;;;;;19.00;42.50;;;;;;5077659;28;19981;-53
2024/01/10 10:19:43;;;;;;;;;;;19.00;42.50;;;;;;5070902;28;19924;-53
2024/01/10 10:22:10;;;;;;;;;;;19.00;42.50;;;;;;5073183;28;19931;-54
2024/01/10 10:24:36;;;;;;;;;;;19.10;42.70;;;;;;5083876;28;19972;-50
2024/01/10 10:27:05;;;;;;;;;;;19.10;42.70;;;;;;5078912;28;19924;-52
2024/01/10 10:29:32;;;;;;;;;;;19.10;42.70;;;;;;5073427;28;19928;-50
2024/01/10 10:31:58;;;;;;;;;;;19.10;42.80;;;;;;5071331;28;19943;-52
2024/01/10 10:34:25;;;;;;;;;;;19.10;42.80;;;;;;5090522;28;20374;-54
2024/01/10 10:36:52;;;;;;;;;;;19.10;42.80;;;;;;5074312;28;19945;-54
2024/01/10 10:39:19;;;;;;;;;;;19.10;42.80;;;;;;5073669;28;19927;-56
2024/01/10 10:41:46;;;;;;;;;;;19.10;42.80;;;;;;5091200;28;19973;-52
2024/01/10 10:44:14;;;;;;;;;;;19.10;42.80;;;;;;5070469;28;19973;-57
2024/01/10 10:46:41;;;;;;;;;;;19.10;42.80;;;;;;5075914;28;19923;-55
2024/01/10 10:49:09;;;;;;;;;;;19.20;42.90;;;;;;5070259;28;19928;-57
2024/01/10 10:51:36;;;;;;;;;;;19.20;42.90;;;;;;5071662;28;19928;-57
2024/01/10 10:54:03;;;;;;;;;;;19.10;42.90;;;;;;5075412;28;19967;-56
2024/01/10 10:56:31;;;;;;;;;;;19.20;43.00;;;;;;5071428;28;19928;-57
2024/01/10 10:58:57;;;;;;;;;;;19.20;43.00;;;;;;5085372;28;19928;-55
2024/01/10 11:01:26;;;;;;;;;;;19.20;43.00;;;;;;5069705;28;20247;-56
2024/01/10 11:03:53;;;;;;;;;;;19.20;43.00;;;;;;5071927;28;19932;-55
2024/01/10 11:06:21;;;;;;;;;;;19.20;43.00;;;;;;5074970;28;19927;-56
2024/01/10 11:08:49;;;;;;;;;;;19.20;43.00;;;;;;5094048;28;20023;-54
2024/01/10 11:11:18;;;;;;;;;;;19.20;43.00;;;;;;5087889;28;19924;-56
2024/01/10 11:13:50;;;;;;;;;;;19.20;43.10;;;;;;5087688;28;19950;-57
2024/01/10 11:16:45;;;;;;;;;;;19.20;43.10;;;;;;5083666;28;20365;-54
2024/01/10 11:19:21;;;;;;;;;;;19.20;43.10;;;;;;5023904;28;19924;-55
2024/01/10 11:21:49;;;;;;;;;;;19.20;43.10;;;;;;5074097;28;19920;-54
2024/01/10 11:24:16;;;;;;;;;;;19.20;43.10;;;;;;5072407;28;20422;-55
2024/01/10 11:26:43;;;;;;;;;;;19.20;43.10;;;;;;5070049;28;19924;-57
2024/01/10 11:29:10;;;;;;;;;;;19.20;43.10;;;;;;5080404;28;19924;-51
2024/01/10 11:31:36;;;;;;;;;;;19.20;43.10;;;;;;5066740;28;19973;-56
2024/01/10 11:34:03;;;;;;;;;;;19.20;43.10;;;;;;5088261;28;19920;-55
2024/01/10 11:36:31;;;;;;;;;;;19.20;43.20;;;;;;5072444;28;19927;-56
2024/01/10 11:38:59;;;;;;;;;;;19.20;43.20;;;;;;5085063;28;19920;-54
2024/01/10 11:41:28;;;;;;;;;;;19.20;43.20;;;;;;5080668;28;20783;-56
2024/01/10 11:44:17;;;;;;;;;;;19.20;43.20;;;;;;5088353;28;19931;-57
2024/01/10 11:46:44;;;;;;;;;;;19.20;43.80;;;;;;5072627;28;19928;-53
2024/01/10 11:49:11;;;;;;;;;;;19.20;43.20;;;;;;5091603;28;19920;-56
2024/01/10 11:51:39;;;;;;;;;;;19.20;43.20;;;;;;5070500;28;19921;-51
2024/01/10 11:54:06;;;;;;;;;;;19.20;43.20;;;;;;5067695;28;19920;-56
2024/01/10 11:56:38;;;;;;;;;;;19.20;43.20;;;;;;5073197;28;20023;-55
2024/01/10 11:59:08;;;;;;;;;;;19.20;43.20;;;;;;5067023;28;19920;-56
2024/01/10 12:01:36;;;;;;;;;;;19.20;43.20;;;;;;5089979;28;19920;-56
2024/01/10 12:04:03;;;;;;;;;;;19.20;43.20;;;;;;5089009;28;19927;-56
2024/01/10 12:06:30;;;;;;;;;;;19.20;43.20;;;;;;5080610;28;20293;-57
2024/01/10 12:08:59;;;;;;;;;;;19.20;43.20;;;;;;5073372;28;19927;-56
2024/01/10 12:11:26;;;;;;;;;;;19.30;43.30;;;;;;5082444;28;19962;-56
2024/01/10 12:13:53;;;;;;;;;;;19.30;43.30;;;;;;5088340;28;19924;-57
2024/01/10 12:16:20;;;;;;;;;;;19.20;43.20;;;;;;5078534;28;19920;-57
2024/01/10 12:18:47;;;;;;;;;;;19.30;43.20;;;;;;5081100;28;19932;-55
2024/01/10 12:21:14;;;;;;;;;;;19.30;43.20;;;;;;5077246;28;19920;-56
2024/01/10 12:23:41;;;;;;;;;;;19.30;43.30;;;;;;5086577;28;20046;-57
2024/01/10 12:26:11;;;;;;;;;;;19.30;43.30;;;;;;5088234;28;19920;-57
2024/01/10 12:28:39;;;;;;;;;;;19.30;43.30;;;;;;5079208;28;19935;-56
2024/01/10 12:31:07;;;;;;;;;;;19.30;43.30;;;;;;5089164;28;19924;-53
2024/01/10 12:33:34;;;;;;;;;;;19.20;33.00;;;;;;5073214;28;19920;-55
2024/01/10 12:36:07;;;;;;;;;;;19.00;27.10;;;;;;5073973;28;19920;-54
2024/01/10 12:38:34;;;;;;;;;;;18.70;27.50;;;;;;5080125;28;19938;-55
2024/01/10 12:41:01;;;;;;;;;;;18.50;30.60;;;;;;5077097;28;19960;-54
2024/01/10 12:43:29;;;;;;;;;;;18.30;33.70;;;;;;5086888;28;19989;-55
2024/01/10 12:46:06;;;;;;;;;;;18.30;35.50;;;;;;5073355;28;19923;-54
2024/01/10 12:48:33;;;;;;;;;;;18.30;36.80;;;;;;5081914;28;19924;-55
2024/01/10 12:51:00;;;;;;;;;;;18.30;37.80;;;;;;5073131;28;20270;-57
2024/01/10 12:53:28;;;;;;;;;;;18.40;38.50;;;;;;5077274;28;19920;-57
2024/01/10 12:55:55;;;;;;;;;;;18.40;39.10;;;;;;5078941;28;19926;-54
2024/01/10 12:58:22;;;;;;;;;;;18.50;39.60;;;;;;5077015;28;19927;-53
2024/01/10 13:00:50;;;;;;;;;;;18.50;39.80;;;;;;5086546;28;19920;-57
2024/01/10 13:03:17;;;;;;;;;;;18.60;40.10;;;;;;5065816;28;19923;-53
2024/01/10 13:05:44;;;;;;;;;;;18.60;40.30;;;;;;5075164;28;19924;-53
2024/01/10 13:08:11;;;;;;;;;;;18.70;40.60;;;;;;5077776;28;19924;-54
2024/01/10 13:10:38;;;;;;;;;;;18.70;40.70;;;;;;5078992;28;20006;-55
2024/01/10 13:13:05;;;;;;;;;;;18.70;40.90;;;;;;5074964;28;19939;-56
2024/01/10 13:15:31;;;;;;;;;;;18.80;41.00;;;;;;5079064;28;19942;-51
2024/01/10 13:17:59;;;;;;;;;;;18.80;41.10;;;;;;5074848;28;19939;-55
2024/01/10 13:20:27;;;;;;;;;;;18.80;41.20;;;;;;5088227;28;19948;-53
2024/01/10 13:22:54;;;;;;;;;;;18.80;41.20;;;;;;5081391;28;19935;-57
2024/01/10 13:25:22;;;;;;;;;;;18.80;41.30;;;;;;5091663;28;19931;-57
2024/01/10 13:27:50;;;;;;;;;;;18.90;41.50;;;;;;5081552;28;20353;-56
2024/01/10 13:30:17;;;;;;;;;;;18.90;41.50;;;;;;5072900;28;19923;-56
2024/01/10 13:32:44;;;;;;;;;;;18.90;41.60;;;;;;5079401;28;19927;-55
2024/01/10 13:35:13;;;;;;;;;;;18.90;41.60;;;;;;5090527;28;20104;-52
2024/01/10 13:37:40;;;;;;;;;;;18.90;41.60;;;;;;5088336;28;20011;-54
2024/01/10 13:40:07;;;;;;;;;;;18.90;41.60;;;;;;5079877;28;19973;-54
2024/01/10 13:42:34;;;;;;;;;;;19.00;41.70;;;;;;5085277;28;19920;-54
2024/01/10 13:45:01;;;;;;;;;;;19.00;41.80;;;;;;5090186;28;19924;-54
2024/01/10 13:47:28;;;;;;;;;;;19.00;41.80;;;;;;5072381;28;19920;-53
2024/01/10 13:49:55;;;;;;;;;;;19.00;41.80;;;;;;5091337;28;19920;-55
2024/01/10 13:52:23;;;;;;;;;;;19.00;41.90;;;;;;5080388;28;19939;-52
2024/01/10 13:54:49;;;;;;;;;;;19.00;41.90;;;;;;5092080;28;19927;-56
2024/01/10 13:57:16;;;;;;;;;;;19.00;41.90;;;;;;5087894;28;19924;-54
2024/01/10 13:59:43;;;;;;;;;;;19.00;41.90;;;;;;5080361;28;20400;-56
2024/01/10 14:02:10;;;;;;;;;;;19.00;41.90;;;;;;5091701;28;19927;-53
2024/01/10 14:04:37;;;;;;;;;;;19.00;42.00;;;;;;5077613;28;19924;-55
2024/01/10 14:07:04;;;;;;;;;;;19.00;42.00;;;;;;5077048;28;19935;-55
2024/01/10 14:09:32;;;;;;;;;;;19.10;42.20;;;;;;5075265;28;19948;-57
2024/01/10 14:11:59;;;;;;;;;;;19.00;42.10;;;;;;5080646;28;19932;-56
2024/01/10 14:14:26;;;;;;;;;;;19.10;42.20;;;;;;5076029;28;19924;-55
2024/01/10 14:16:53;;;;;;;;;;;19.10;42.30;;;;;;5090766;28;20129;-57